sensor_id;sensor_type;location;lat;lon;timestamp;P1;durP1;ratioP1;P2;durP2;ratioP2
15192;SDS011;7697;51.630;7.484;2022-09-29T00:00:27;3.92;;;3.60;;
15192;SDS011;7697;51.630;7.484;2022-09-29T00:05:29;3.90;;;3.47;;
15192;SDS011;7697;51.630;7.484;2022-09-29T00:10:31;3.88;;;3.58;;
15192;SDS011;7697;51.630;7.484;2022-09-29T00:15:34;4.05;;;3.65;;
15192;SDS011;7697;51.630;7.484;2022-09-29T00:20:36;3.85;;;3.50;;
15192;SDS011;7697;51.630;7.484;2022-09-29T00:25:38;4.35;;;3.90;;
15192;SDS011;7697;51.630;7.484;2022-09-29T00:30:41;3.97;;;3.55;;
15192;SDS011;7697;51.630;7.484;2022-09-29T00:35:43;4.40;;;4.00;;
15192;SDS011;7697;51.630;7.484;2022-09-29T00:40:45;4.60;;;4.20;;
15192;SDS011;7697;51.630;7.484;2022-09-29T00:45:48;3.78;;;3.45;;
15192;SDS011;7697;51.630;7.484;2022-09-29T00:50:53;5.45;;;3.33;;
15192;SDS011;7697;51.630;7.484;2022-09-29T00:55:58;3.53;;;3.22;;
15192;SDS011;7697;51.630;7.484;2022-09-29T01:01:05;4.18;;;3.40;;
15192;SDS011;7697;51.630;7.484;2022-09-29T01:06:07;3.53;;;3.22;;
15192;SDS011;7697;51.630;7.484;2022-09-29T01:11:14;4.28;;;3.58;;
15192;SDS011;7697;51.630;7.484;2022-09-29T01:16:18;3.50;;;3.20;;
15192;SDS011;7697;51.630;7.484;2022-09-29T01:21:22;3.40;;;3.03;;
15192;SDS011;7697;51.630;7.484;2022-09-29T01:32:07;3.45;;;2.90;;
15192;SDS011;7697;51.630;7.484;2022-09-29T01:37:15;3.65;;;3.35;;
15192;SDS011;7697;51.630;7.484;2022-09-29T01:42:25;4.03;;;3.10;;
15192;SDS011;7697;51.630;7.484;2022-09-29T01:47:35;3.40;;;3.10;;
15192;SDS011;7697;51.630;7.484;2022-09-29T01:52:41;3.90;;;3.60;;
15192;SDS011;7697;51.630;7.484;2022-09-29T01:57:47;3.33;;;3.03;;
15192;SDS011;7697;51.630;7.484;2022-09-29T02:02:56;3.45;;;3.15;;
15192;SDS011;7697;51.630;7.484;2022-09-29T02:08:01;3.80;;;3.40;;
15192;SDS011;7697;51.630;7.484;2022-09-29T02:13:11;4.05;;;3.50;;
15192;SDS011;7697;51.630;7.484;2022-09-29T02:18:19;3.50;;;3.20;;
15192;SDS011;7697;51.630;7.484;2022-09-29T02:23:23;3.60;;;3.30;;
15192;SDS011;7697;51.630;7.484;2022-09-29T02:28:25;3.58;;;3.28;;
15192;SDS011;7697;51.630;7.484;2022-09-29T02:33:28;3.67;;;3.38;;
15192;SDS011;7697;51.630;7.484;2022-09-29T02:38:34;3.60;;;3.30;;
15192;SDS011;7697;51.630;7.484;2022-09-29T02:43:51;3.67;;;3.38;;
15192;SDS011;7697;51.630;7.484;2022-09-29T02:49:10;3.88;;;3.53;;
15192;SDS011;7697;51.630;7.484;2022-09-29T02:54:30;3.90;;;3.53;;
15192;SDS011;7697;51.630;7.484;2022-09-29T02:59:43;3.97;;;3.40;;
15192;SDS011;7697;51.630;7.484;2022-09-29T03:04:52;4.32;;;3.80;;
15192;SDS011;7697;51.630;7.484;2022-09-29T03:09:54;3.90;;;3.50;;
15192;SDS011;7697;51.630;7.484;2022-09-29T03:14:55;4.17;;;3.77;;
15192;SDS011;7697;51.630;7.484;2022-09-29T03:19:59;4.13;;;3.73;;
15192;SDS011;7697;51.630;7.484;2022-09-29T03:25:01;4.13;;;3.40;;
15192;SDS011;7697;51.630;7.484;2022-09-29T03:30:04;4.38;;;3.97;;
15192;SDS011;7697;51.630;7.484;2022-09-29T03:35:08;4.10;;;3.70;;
15192;SDS011;7697;51.630;7.484;2022-09-29T03:40:10;4.40;;;4.00;;
15192;SDS011;7697;51.630;7.484;2022-09-29T03:45:12;4.10;;;3.70;;
15192;SDS011;7697;51.630;7.484;2022-09-29T03:50:15;4.90;;;4.43;;
15192;SDS011;7697;51.630;7.484;2022-09-29T03:55:17;4.40;;;4.00;;
15192;SDS011;7697;51.630;7.484;2022-09-29T04:00:18;4.43;;;4.03;;
15192;SDS011;7697;51.630;7.484;2022-09-29T04:05:22;5.90;;;4.30;;
15192;SDS011;7697;51.630;7.484;2022-09-29T04:10:23;4.40;;;4.00;;
15192;SDS011;7697;51.630;7.484;2022-09-29T04:15:25;5.07;;;4.28;;
15192;SDS011;7697;51.630;7.484;2022-09-29T04:20:28;4.18;;;3.78;;
15192;SDS011;7697;51.630;7.484;2022-09-29T04:25:30;4.30;;;3.90;;
15192;SDS011;7697;51.630;7.484;2022-09-29T04:30:31;4.97;;;4.47;;
15192;SDS011;7697;51.630;7.484;2022-09-29T04:35:35;6.03;;;5.37;;
15192;SDS011;7697;51.630;7.484;2022-09-29T04:40:36;5.57;;;4.97;;
15192;SDS011;7697;51.630;7.484;2022-09-29T04:45:38;5.30;;;4.80;;
15192;SDS011;7697;51.630;7.484;2022-09-29T04:50:41;6.33;;;5.27;;
15192;SDS011;7697;51.630;7.484;2022-09-29T04:55:43;5.97;;;5.37;;
15192;SDS011;7697;51.630;7.484;2022-09-29T05:00:45;5.77;;;5.17;;
15192;SDS011;7697;51.630;7.484;2022-09-29T05:05:48;5.33;;;4.83;;
15192;SDS011;7697;51.630;7.484;2022-09-29T05:10:54;5.10;;;4.60;;
15192;SDS011;7697;51.630;7.484;2022-09-29T05:15:56;5.23;;;4.43;;
15192;SDS011;7697;51.630;7.484;2022-09-29T05:21:04;4.70;;;4.23;;
15192;SDS011;7697;51.630;7.484;2022-09-29T05:26:08;5.40;;;4.90;;
15192;SDS011;7697;51.630;7.484;2022-09-29T05:31:11;5.00;;;4.50;;
15192;SDS011;7697;51.630;7.484;2022-09-29T05:36:14;5.27;;;4.77;;
15192;SDS011;7697;51.630;7.484;2022-09-29T05:41:16;6.47;;;4.90;;
15192;SDS011;7697;51.630;7.484;2022-09-29T05:46:21;5.03;;;4.53;;
15192;SDS011;7697;51.630;7.484;2022-09-29T05:51:25;5.37;;;4.87;;
15192;SDS011;7697;51.630;7.484;2022-09-29T05:56:27;7.50;;;5.50;;
15192;SDS011;7697;51.630;7.484;2022-09-29T06:01:30;6.57;;;5.47;;
15192;SDS011;7697;51.630;7.484;2022-09-29T06:06:34;5.60;;;5.10;;
15192;SDS011;7697;51.630;7.484;2022-09-29T06:11:39;6.17;;;5.57;;
15192;SDS011;7697;51.630;7.484;2022-09-29T06:16:40;6.77;;;6.00;;
15192;SDS011;7697;51.630;7.484;2022-09-29T06:21:44;6.10;;;5.50;;
15192;SDS011;7697;51.630;7.484;2022-09-29T06:26:46;7.32;;;5.70;;
15192;SDS011;7697;51.630;7.484;2022-09-29T06:31:48;6.97;;;6.07;;
15192;SDS011;7697;51.630;7.484;2022-09-29T06:36:51;9.03;;;7.30;;
15192;SDS011;7697;51.630;7.484;2022-09-29T06:42:10;8.57;;;7.03;;
15192;SDS011;7697;51.630;7.484;2022-09-29T06:47:11;8.35;;;6.90;;
15192;SDS011;7697;51.630;7.484;2022-09-29T06:52:14;10.10;;;7.97;;
15192;SDS011;7697;51.630;7.484;2022-09-29T06:57:16;10.20;;;7.45;;
15192;SDS011;7697;51.630;7.484;2022-09-29T07:02:18;7.88;;;7.07;;
15192;SDS011;7697;51.630;7.484;2022-09-29T07:07:21;9.63;;;8.55;;
15192;SDS011;7697;51.630;7.484;2022-09-29T07:12:23;10.98;;;9.20;;
15192;SDS011;7697;51.630;7.484;2022-09-29T07:17:25;10.02;;;8.95;;
15192;SDS011;7697;51.630;7.484;2022-09-29T07:22:28;11.13;;;8.63;;
15192;SDS011;7697;51.630;7.484;2022-09-29T07:27:30;9.40;;;8.50;;
15192;SDS011;7697;51.630;7.484;2022-09-29T07:32:33;11.25;;;10.00;;
15192;SDS011;7697;51.630;7.484;2022-09-29T07:37:36;10.75;;;8.25;;
15192;SDS011;7697;51.630;7.484;2022-09-29T07:42:38;10.38;;;8.75;;
15192;SDS011;7697;51.630;7.484;2022-09-29T07:47:39;11.85;;;8.60;;
15192;SDS011;7697;51.630;7.484;2022-09-29T07:52:42;11.00;;;9.27;;
15192;SDS011;7697;51.630;7.484;2022-09-29T07:57:45;9.25;;;8.30;;
15192;SDS011;7697;51.630;7.484;2022-09-29T08:02:48;11.05;;;8.40;;
15192;SDS011;7697;51.630;7.484;2022-09-29T08:07:51;11.73;;;8.65;;
15192;SDS011;7697;51.630;7.484;2022-09-29T08:12:53;9.38;;;8.38;;
15192;SDS011;7697;51.630;7.484;2022-09-29T08:17:55;12.95;;;9.75;;
15192;SDS011;7697;51.630;7.484;2022-09-29T08:22:58;9.93;;;8.93;;
15192;SDS011;7697;51.630;7.484;2022-09-29T08:28:00;10.07;;;9.07;;
15192;SDS011;7697;51.630;7.484;2022-09-29T08:33:02;10.43;;;8.40;;
15192;SDS011;7697;51.630;7.484;2022-09-29T08:38:08;10.45;;;9.35;;
15192;SDS011;7697;51.630;7.484;2022-09-29T08:43:10;9.90;;;8.90;;
15192;SDS011;7697;51.630;7.484;2022-09-29T08:48:18;12.25;;;10.40;;
15192;SDS011;7697;51.630;7.484;2022-09-29T08:53:25;9.65;;;8.65;;
15192;SDS011;7697;51.630;7.484;2022-09-29T08:58:28;10.93;;;8.15;;
15192;SDS011;7697;51.630;7.484;2022-09-29T09:03:42;10.77;;;8.13;;
15192;SDS011;7697;51.630;7.484;2022-09-29T09:09:12;7.70;;;6.95;;
15192;SDS011;7697;51.630;7.484;2022-09-29T09:14:30;9.23;;;7.88;;
15192;SDS011;7697;51.630;7.484;2022-09-29T09:19:43;9.13;;;7.70;;
15192;SDS011;7697;51.630;7.484;2022-09-29T09:25:06;7.88;;;7.10;;
15192;SDS011;7697;51.630;7.484;2022-09-29T09:30:19;8.63;;;6.05;;
15192;SDS011;7697;51.630;7.484;2022-09-29T09:35:27;8.45;;;7.50;;
15192;SDS011;7697;51.630;7.484;2022-09-29T09:40:35;7.43;;;6.57;;
15192;SDS011;7697;51.630;7.484;2022-09-29T09:45:41;7.55;;;6.45;;
15192;SDS011;7697;51.630;7.484;2022-09-29T09:50:50;8.27;;;6.20;;
15192;SDS011;7697;51.630;7.484;2022-09-29T09:55:56;7.13;;;6.40;;
15192;SDS011;7697;51.630;7.484;2022-09-29T10:01:05;6.57;;;4.95;;
15192;SDS011;7697;51.630;7.484;2022-09-29T10:06:13;5.10;;;4.40;;
15192;SDS011;7697;51.630;7.484;2022-09-29T10:11:22;5.15;;;4.65;;
15192;SDS011;7697;51.630;7.484;2022-09-29T10:16:27;6.38;;;5.30;;
15192;SDS011;7697;51.630;7.484;2022-09-29T10:21:35;6.82;;;4.70;;
15192;SDS011;7697;51.630;7.484;2022-09-29T10:26:41;4.43;;;4.00;;
15192;SDS011;7697;51.630;7.484;2022-09-29T10:31:56;6.90;;;5.30;;
15192;SDS011;7697;51.630;7.484;2022-09-29T10:37:02;7.00;;;4.45;;
15192;SDS011;7697;51.630;7.484;2022-09-29T10:42:18;5.43;;;3.60;;
15192;SDS011;7697;51.630;7.484;2022-09-29T10:47:22;4.15;;;3.60;;
15192;SDS011;7697;51.630;7.484;2022-09-29T10:52:25;2.70;;;2.50;;
15192;SDS011;7697;51.630;7.484;2022-09-29T10:57:33;3.15;;;2.85;;
15192;SDS011;7697;51.630;7.484;2022-09-29T11:02:36;4.32;;;2.60;;
15192;SDS011;7697;51.630;7.484;2022-09-29T11:07:43;2.92;;;2.10;;
15192;SDS011;7697;51.630;7.484;2022-09-29T11:12:47;3.10;;;2.10;;
15192;SDS011;7697;51.630;7.484;2022-09-29T11:17:50;2.30;;;1.50;;
15192;SDS011;7697;51.630;7.484;2022-09-29T11:28:38;2.25;;;1.52;;
15192;SDS011;7697;51.630;7.484;2022-09-29T11:33:58;2.17;;;1.90;;
15192;SDS011;7697;51.630;7.484;2022-09-29T11:39:11;2.90;;;2.00;;
15192;SDS011;7697;51.630;7.484;2022-09-29T11:44:31;1.85;;;1.63;;
15192;SDS011;7697;51.630;7.484;2022-09-29T11:49:55;2.20;;;1.90;;
15192;SDS011;7697;51.630;7.484;2022-09-29T11:55:16;4.40;;;1.88;;
15192;SDS011;7697;51.630;7.484;2022-09-29T12:00:41;1.70;;;1.60;;
15192;SDS011;7697;51.630;7.484;2022-09-29T12:06:03;1.70;;;1.60;;
15192;SDS011;7697;51.630;7.484;2022-09-29T12:11:20;1.90;;;1.67;;
15192;SDS011;7697;51.630;7.484;2022-09-29T12:16:29;2.45;;;1.70;;
15192;SDS011;7697;51.630;7.484;2022-09-29T12:21:35;3.42;;;1.65;;
15192;SDS011;7697;51.630;7.484;2022-09-29T12:26:41;2.58;;;1.60;;
15192;SDS011;7697;51.630;7.484;2022-09-29T12:31:46;2.33;;;1.52;;
15192;SDS011;7697;51.630;7.484;2022-09-29T12:36:54;2.53;;;1.95;;
15192;SDS011;7697;51.630;7.484;2022-09-29T12:42:07;3.05;;;1.83;;
15192;SDS011;7697;51.630;7.484;2022-09-29T12:47:21;1.80;;;1.50;;
15192;SDS011;7697;51.630;7.484;2022-09-29T12:52:28;2.25;;;1.80;;
15192;SDS011;7697;51.630;7.484;2022-09-29T12:57:38;3.05;;;1.65;;
15192;SDS011;7697;51.630;7.484;2022-09-29T13:02:50;2.00;;;1.80;;
15192;SDS011;7697;51.630;7.484;2022-09-29T13:08:16;2.53;;;1.85;;
15192;SDS011;7697;51.630;7.484;2022-09-29T13:13:45;2.50;;;1.65;;
15192;SDS011;7697;51.630;7.484;2022-09-29T13:24:43;2.05;;;1.30;;
15192;SDS011;7697;51.630;7.484;2022-09-29T13:29:54;3.17;;;1.90;;
15192;SDS011;7697;51.630;7.484;2022-09-29T13:35:02;1.55;;;1.42;;
15192;SDS011;7697;51.630;7.484;2022-09-29T13:40:16;2.45;;;1.60;;
15192;SDS011;7697;51.630;7.484;2022-09-29T13:50:51;2.33;;;1.70;;
15192;SDS011;7697;51.630;7.484;2022-09-29T13:55:56;2.38;;;1.50;;
15192;SDS011;7697;51.630;7.484;2022-09-29T14:01:11;1.80;;;1.50;;
15192;SDS011;7697;51.630;7.484;2022-09-29T14:06:32;2.55;;;1.80;;
15192;SDS011;7697;51.630;7.484;2022-09-29T14:11:42;3.00;;;1.92;;
15192;SDS011;7697;51.630;7.484;2022-09-29T14:16:50;2.45;;;1.95;;
15192;SDS011;7697;51.630;7.484;2022-09-29T14:21:57;2.13;;;1.80;;
15192;SDS011;7697;51.630;7.484;2022-09-29T14:27:13;1.70;;;1.60;;
15192;SDS011;7697;51.630;7.484;2022-09-29T14:32:33;3.65;;;1.90;;
15192;SDS011;7697;51.630;7.484;2022-09-29T14:37:45;2.33;;;1.75;;
15192;SDS011;7697;51.630;7.484;2022-09-29T14:43:00;2.03;;;1.60;;
15192;SDS011;7697;51.630;7.484;2022-09-29T14:48:09;1.85;;;1.52;;
15192;SDS011;7697;51.630;7.484;2022-09-29T14:53:42;1.83;;;1.65;;
15192;SDS011;7697;51.630;7.484;2022-09-29T14:59:00;1.60;;;1.38;;
15192;SDS011;7697;51.630;7.484;2022-09-29T15:04:10;2.15;;;1.60;;
15192;SDS011;7697;51.630;7.484;2022-09-29T15:09:17;2.67;;;1.73;;
15192;SDS011;7697;51.630;7.484;2022-09-29T15:14:21;2.33;;;1.70;;
15192;SDS011;7697;51.630;7.484;2022-09-29T15:19:34;1.50;;;1.40;;
15192;SDS011;7697;51.630;7.484;2022-09-29T15:24:56;1.70;;;1.35;;
15192;SDS011;7697;51.630;7.484;2022-09-29T15:30:12;1.90;;;1.60;;
15192;SDS011;7697;51.630;7.484;2022-09-29T15:35:18;1.98;;;1.60;;
15192;SDS011;7697;51.630;7.484;2022-09-29T15:40:24;1.73;;;1.60;;
15192;SDS011;7697;51.630;7.484;2022-09-29T15:45:27;2.83;;;1.90;;
15192;SDS011;7697;51.630;7.484;2022-09-29T15:50:29;2.28;;;1.90;;
15192;SDS011;7697;51.630;7.484;2022-09-29T15:55:36;2.47;;;1.63;;
15192;SDS011;7697;51.630;7.484;2022-09-29T16:00:43;1.90;;;1.70;;
15192;SDS011;7697;51.630;7.484;2022-09-29T16:05:51;2.95;;;1.63;;
15192;SDS011;7697;51.630;7.484;2022-09-29T16:11:01;2.38;;;1.80;;
15192;SDS011;7697;51.630;7.484;2022-09-29T16:16:08;2.42;;;1.90;;
15192;SDS011;7697;51.630;7.484;2022-09-29T16:21:11;2.20;;;1.83;;
15192;SDS011;7697;51.630;7.484;2022-09-29T16:26:19;2.22;;;1.85;;
15192;SDS011;7697;51.630;7.484;2022-09-29T16:31:35;2.25;;;1.83;;
15192;SDS011;7697;51.630;7.484;2022-09-29T16:36:38;4.53;;;4.10;;
15192;SDS011;7697;51.630;7.484;2022-09-29T16:41:42;4.35;;;3.70;;
15192;SDS011;7697;51.630;7.484;2022-09-29T16:46:48;3.20;;;2.80;;
15192;SDS011;7697;51.630;7.484;2022-09-29T16:51:52;2.80;;;2.47;;
15192;SDS011;7697;51.630;7.484;2022-09-29T16:57:18;4.82;;;3.28;;
15192;SDS011;7697;51.630;7.484;2022-09-29T17:02:22;3.55;;;2.90;;
15192;SDS011;7697;51.630;7.484;2022-09-29T17:07:25;4.13;;;2.92;;
15192;SDS011;7697;51.630;7.484;2022-09-29T17:12:29;3.08;;;2.35;;
15192;SDS011;7697;51.630;7.484;2022-09-29T17:17:32;2.60;;;2.40;;
15192;SDS011;7697;51.630;7.484;2022-09-29T17:22:34;2.50;;;2.30;;
15192;SDS011;7697;51.630;7.484;2022-09-29T17:27:38;3.65;;;2.30;;
15192;SDS011;7697;51.630;7.484;2022-09-29T17:33:01;2.65;;;2.45;;
15192;SDS011;7697;51.630;7.484;2022-09-29T17:38:02;2.55;;;2.35;;
15192;SDS011;7697;51.630;7.484;2022-09-29T17:43:09;2.05;;;1.85;;
15192;SDS011;7697;51.630;7.484;2022-09-29T17:48:10;3.47;;;2.25;;
15192;SDS011;7697;51.630;7.484;2022-09-29T17:53:14;3.05;;;2.15;;
15192;SDS011;7697;51.630;7.484;2022-09-29T17:58:20;3.58;;;2.10;;
15192;SDS011;7697;51.630;7.484;2022-09-29T18:03:22;2.47;;;2.10;;
15192;SDS011;7697;51.630;7.484;2022-09-29T18:08:25;2.40;;;2.20;;
15192;SDS011;7697;51.630;7.484;2022-09-29T18:13:30;3.03;;;2.38;;
15192;SDS011;7697;51.630;7.484;2022-09-29T18:18:32;3.13;;;2.65;;
15192;SDS011;7697;51.630;7.484;2022-09-29T18:23:34;3.17;;;2.58;;
15192;SDS011;7697;51.630;7.484;2022-09-29T18:28:37;3.05;;;2.40;;
15192;SDS011;7697;51.630;7.484;2022-09-29T18:33:39;2.80;;;1.90;;
15192;SDS011;7697;51.630;7.484;2022-09-29T18:38:41;2.80;;;2.20;;
15192;SDS011;7697;51.630;7.484;2022-09-29T18:43:44;2.95;;;2.30;;
15192;SDS011;7697;51.630;7.484;2022-09-29T18:48:46;2.75;;;2.40;;
15192;SDS011;7697;51.630;7.484;2022-09-29T18:53:48;3.05;;;2.72;;
15192;SDS011;7697;51.630;7.484;2022-09-29T18:58:51;3.33;;;3.00;;
15192;SDS011;7697;51.630;7.484;2022-09-29T19:03:53;3.83;;;3.53;;
15192;SDS011;7697;51.630;7.484;2022-09-29T19:08:57;4.65;;;4.07;;
15192;SDS011;7697;51.630;7.484;2022-09-29T19:14:01;5.13;;;4.60;;
15192;SDS011;7697;51.630;7.484;2022-09-29T19:19:03;4.07;;;3.58;;
15192;SDS011;7697;51.630;7.484;2022-09-29T19:24:07;4.25;;;3.85;;
15192;SDS011;7697;51.630;7.484;2022-09-29T19:29:10;4.97;;;4.15;;
15192;SDS011;7697;51.630;7.484;2022-09-29T19:34:12;4.40;;;4.00;;
15192;SDS011;7697;51.630;7.484;2022-09-29T19:39:14;4.00;;;3.60;;
15192;SDS011;7697;51.630;7.484;2022-09-29T19:44:17;4.30;;;3.90;;
15192;SDS011;7697;51.630;7.484;2022-09-29T19:49:20;3.92;;;3.60;;
15192;SDS011;7697;51.630;7.484;2022-09-29T19:54:23;5.07;;;4.57;;
15192;SDS011;7697;51.630;7.484;2022-09-29T19:59:29;5.25;;;4.63;;
15192;SDS011;7697;51.630;7.484;2022-09-29T20:04:33;5.38;;;4.88;;
15192;SDS011;7697;51.630;7.484;2022-09-29T20:09:36;5.68;;;5.10;;
15192;SDS011;7697;51.630;7.484;2022-09-29T20:14:39;6.80;;;5.60;;
15192;SDS011;7697;51.630;7.484;2022-09-29T20:19:41;7.55;;;5.35;;
15192;SDS011;7697;51.630;7.484;2022-09-29T20:24:43;6.78;;;5.47;;
15192;SDS011;7697;51.630;7.484;2022-09-29T20:29:47;7.03;;;5.78;;
15192;SDS011;7697;51.630;7.484;2022-09-29T20:34:49;5.93;;;5.32;;
15192;SDS011;7697;51.630;7.484;2022-09-29T20:39:50;7.47;;;5.95;;
15192;SDS011;7697;51.630;7.484;2022-09-29T20:44:55;7.10;;;5.68;;
15192;SDS011;7697;51.630;7.484;2022-09-29T20:49:57;6.22;;;5.43;;
15192;SDS011;7697;51.630;7.484;2022-09-29T20:54:58;7.75;;;6.10;;
15192;SDS011;7697;51.630;7.484;2022-09-29T21:00:04;6.03;;;5.38;;
15192;SDS011;7697;51.630;7.484;2022-09-29T21:05:08;6.15;;;4.95;;
15192;SDS011;7697;51.630;7.484;2022-09-29T21:10:09;6.35;;;5.15;;
15192;SDS011;7697;51.630;7.484;2022-09-29T21:15:16;6.45;;;5.18;;
15192;SDS011;7697;51.630;7.484;2022-09-29T21:20:17;5.00;;;4.50;;
15192;SDS011;7697;51.630;7.484;2022-09-29T21:25:19;5.53;;;4.75;;
15192;SDS011;7697;51.630;7.484;2022-09-29T21:30:22;7.38;;;5.22;;
15192;SDS011;7697;51.630;7.484;2022-09-29T21:35:25;5.90;;;5.28;;
15192;SDS011;7697;51.630;7.484;2022-09-29T21:40:27;6.10;;;5.15;;
15192;SDS011;7697;51.630;7.484;2022-09-29T21:45:30;6.93;;;5.70;;
15192;SDS011;7697;51.630;7.484;2022-09-29T21:50:32;5.40;;;4.65;;
15192;SDS011;7697;51.630;7.484;2022-09-29T21:55:34;6.47;;;5.47;;
15192;SDS011;7697;51.630;7.484;2022-09-29T22:00:42;6.55;;;5.70;;
15192;SDS011;7697;51.630;7.484;2022-09-29T22:05:44;5.95;;;5.18;;
15192;SDS011;7697;51.630;7.484;2022-09-29T22:10:46;6.30;;;5.38;;
15192;SDS011;7697;51.630;7.484;2022-09-29T22:15:51;5.10;;;4.45;;
15192;SDS011;7697;51.630;7.484;2022-09-29T22:20:55;6.05;;;4.72;;
15192;SDS011;7697;51.630;7.484;2022-09-29T22:25:57;6.07;;;4.80;;
15192;SDS011;7697;51.630;7.484;2022-09-29T22:31:02;6.30;;;4.95;;
15192;SDS011;7697;51.630;7.484;2022-09-29T22:36:06;5.95;;;4.85;;
15192;SDS011;7697;51.630;7.484;2022-09-29T22:41:12;5.15;;;4.65;;
15192;SDS011;7697;51.630;7.484;2022-09-29T22:46:25;9.13;;;5.35;;
15192;SDS011;7697;51.630;7.484;2022-09-29T22:51:27;6.13;;;4.97;;
15192;SDS011;7697;51.630;7.484;2022-09-29T22:56:30;6.03;;;5.03;;
15192;SDS011;7697;51.630;7.484;2022-09-29T23:01:33;5.30;;;4.70;;
15192;SDS011;7697;51.630;7.484;2022-09-29T23:06:36;5.45;;;4.63;;
15192;SDS011;7697;51.630;7.484;2022-09-29T23:11:38;4.88;;;4.38;;
15192;SDS011;7697;51.630;7.484;2022-09-29T23:16:41;7.93;;;4.78;;
15192;SDS011;7697;51.630;7.484;2022-09-29T23:21:46;7.65;;;5.10;;
15192;SDS011;7697;51.630;7.484;2022-09-29T23:26:48;6.13;;;4.80;;
15192;SDS011;7697;51.630;7.484;2022-09-29T23:31:54;4.60;;;4.20;;
15192;SDS011;7697;51.630;7.484;2022-09-29T23:36:56;6.68;;;4.72;;
15192;SDS011;7697;51.630;7.484;2022-09-29T23:41:59;4.90;;;4.40;;
15192;SDS011;7697;51.630;7.484;2022-09-29T23:47:04;5.78;;;4.18;;
15192;SDS011;7697;51.630;7.484;2022-09-29T23:52:06;5.15;;;4.50;;
15192;SDS011;7697;51.630;7.484;2022-09-29T23:57:08;5.78;;;4.18;;
